Time;durP1;ratioP1;P1;durP2;ratioP2;P2;SDS_P1;SDS_P2;PMS_P1;PMS_P2;Temp;Humidity;BMP_temperature;BMP_pressure;BME280_temperature;BME280_humidity;BME280_pressure;Samples;Min_cycle;Max_cycle;Signal;HPM_P1;HPM_P2
2021/11/09 00:01:05;;;;;;;17.25;10.78;;;;;;;6.98;92.97;101463.37;1661639;85;25862;-85
2021/11/09 00:03:38;;;;;;;19.00;11.15;;;;;;;7.00;92.92;101465.39;1600830;85;25984;-85
2021/11/09 00:06:14;;;;;;;19.67;10.58;;;;;;;7.00;92.83;101470.72;1645394;86;25936;-85
2021/11/09 00:08:42;;;;;;;18.35;9.95;;;;;;;7.00;92.78;101478.23;1659101;85;27598;-85
2021/11/09 00:11:01;;;;;;;17.25;10.43;;;;;;;6.99;92.73;101479.20;1669512;85;26343;-85
2021/11/09 00:13:28;;;;;;;23.02;10.90;;;;;;;6.96;92.62;101477.32;1633334;85;25810;-85
2021/11/09 00:15:55;;;;;;;17.92;10.43;;;;;;;6.93;92.64;101479.77;1642721;85;26154;-85
2021/11/09 00:18:22;;;;;;;21.55;11.60;;;;;;;6.90;92.67;101480.08;1651675;85;25890;-85
2021/11/09 00:20:51;;;;;;;19.60;10.43;;;;;;;6.89;92.72;101483.70;1665128;85;28300;-85
2021/11/09 00:23:19;;;;;;;19.60;11.65;;;;;;;6.87;92.76;101484.82;1589409;85;25931;-84
2021/11/09 00:25:46;;;;;;;18.85;11.45;;;;;;;6.88;92.78;101490.03;1637753;86;25859;-85
2021/11/09 00:28:13;;;;;;;18.82;10.58;;;;;;;6.89;92.75;101491.69;1664464;85;25908;-85
2021/11/09 00:30:40;;;;;;;20.50;10.75;;;;;;;6.88;92.69;101491.84;1662682;85;25843;-85
2021/11/09 00:33:08;;;;;;;17.67;9.83;;;;;;;6.87;92.72;101494.99;1600054;84;27375;-85
2021/11/09 00:35:36;;;;;;;17.70;9.98;;;;;;;6.85;92.61;101490.78;1620729;84;26616;-84
2021/11/09 00:38:07;;;;;;;17.50;9.70;;;;;;;6.82;92.64;101501.73;1642650;84;25886;-84
2021/11/09 00:40:36;;;;;;;17.70;9.93;;;;;;;6.81;92.57;101508.88;1668011;84;26118;-84
2021/11/09 00:43:07;;;;;;;17.98;9.58;;;;;;;6.77;92.58;101505.30;1649951;85;25922;-84
2021/11/09 00:45:35;;;;;;;17.73;9.53;;;;;;;6.76;92.49;101506.27;1654239;85;27564;-85
2021/11/09 00:48:03;;;;;;;18.02;9.13;;;;;;;6.73;92.43;101511.89;1640380;85;25910;-84
2021/11/09 00:50:31;;;;;;;14.18;8.13;;;;;;;6.68;92.31;101514.11;1665869;85;25817;-84
2021/11/09 00:52:58;;;;;;;17.20;8.73;;;;;;;6.64;92.30;101512.72;1626775;85;26559;-85
2021/11/09 00:55:26;;;;;;;16.42;8.53;;;;;;;6.61;92.32;101519.16;1610986;87;26752;-85
2021/11/09 00:57:53;;;;;;;17.32;7.83;;;;;;;6.56;92.22;101521.41;1664645;84;27471;-84
2021/11/09 01:00:25;;;;;;;16.30;8.08;;;;;;;6.51;92.27;101522.30;1661872;85;26064;-84
2021/11/09 01:02:52;;;;;;;14.40;8.15;;;;;;;6.46;92.24;101528.52;1631590;87;25911;-85
2021/11/09 01:05:25;;;;;;;16.52;8.63;;;;;;;6.44;92.29;101521.16;1651918;85;25446;-84
2021/11/09 01:07:59;;;;;;;16.80;8.95;;;;;;;6.38;92.18;101524.38;1671839;84;25862;-85
2021/11/09 01:10:31;;;;;;;16.60;8.38;;;;;;;6.33;92.15;101523.12;1628122;86;28322;-84
2021/11/09 01:12:58;;;;;;;14.68;7.30;;;;;;;6.29;92.26;101526.52;1617655;85;25894;-84
2021/11/09 01:15:27;;;;;;;14.73;8.00;;;;;;;6.24;92.20;101525.59;1653907;85;26793;-84
2021/11/09 01:17:56;;;;;;;15.68;7.95;;;;;;;6.23;92.31;101529.73;1648497;85;26273;-84
2021/11/09 01:20:27;;;;;;;14.38;7.45;;;;;;;6.24;92.32;101528.77;1676504;84;26004;-84
2021/11/09 01:22:56;;;;;;;12.33;7.33;;;;;;;6.23;92.26;101537.72;1622779;86;27446;-84
2021/11/09 01:25:26;;;;;;;14.33;7.17;;;;;;;6.21;92.33;101535.68;1647650;86;25857;-84
2021/11/09 01:27:53;;;;;;;14.35;7.70;;;;;;;6.20;92.22;101542.81;1640025;85;26172;-85
2021/11/09 01:30:20;;;;;;;11.93;6.75;;;;;;;6.19;92.13;101540.30;1621446;87;25879;-84
2021/11/09 01:32:52;;;;;;;12.37;7.40;;;;;;;6.20;92.19;101542.00;1611586;85;25873;-85
2021/11/09 01:35:21;;;;;;;10.53;7.30;;;;;;;6.20;92.16;101536.67;1655229;85;27766;-87
2021/11/09 01:37:49;;;;;;;11.65;6.97;;;;;;;6.22;92.24;101552.02;1665809;85;26498;-85
2021/11/09 01:40:19;;;;;;;13.60;7.03;;;;;;;6.20;91.94;101551.31;1651425;85;26697;-83
2021/11/09 01:42:46;;;;;;;13.75;7.28;;;;;;;6.18;91.84;101550.57;1630036;86;25932;-85
2021/11/09 01:45:14;;;;;;;11.83;6.97;;;;;;;6.15;91.83;101551.71;1664023;85;25766;-84
2021/11/09 01:47:44;;;;;;;14.35;7.20;;;;;;;6.14;91.69;101554.48;1633268;85;27493;-84
2021/11/09 01:50:16;;;;;;;12.45;7.00;;;;;;;6.11;91.57;101556.10;1659778;86;25814;-86
2021/11/09 01:52:43;;;;;;;15.20;7.00;;;;;;;6.05;91.51;101548.66;1613401;85;25904;-84
2021/11/09 01:55:14;;;;;;;12.37;7.00;;;;;;;6.03;91.54;101562.59;1641621;85;26178;-84
2021/11/09 01:57:41;;;;;;;13.05;7.05;;;;;;;5.99;91.52;101562.47;1639705;85;25891;-84
2021/11/09 02:00:15;;;;;;;12.25;6.37;;;;;;;5.96;91.44;101561.43;1665099;85;27462;-85
2021/11/09 02:02:43;;;;;;;13.93;6.60;;;;;;;5.93;91.41;101564.34;1627327;85;26003;-85
2021/11/09 02:05:13;;;;;;;13.80;6.80;;;;;;;5.89;91.37;101566.92;1653288;85;26089;-85
2021/11/09 02:07:47;;;;;;;10.35;6.47;;;;;;;5.85;91.30;101569.01;1674187;85;25798;-84
2021/11/09 02:10:15;;;;;;;14.83;7.10;;;;;;;5.82;91.30;101569.70;1612108;86;25995;-86
2021/11/09 02:12:44;;;;;;;11.63;6.60;;;;;;;5.77;91.31;101578.11;1662836;86;27590;-84
2021/11/09 02:15:13;;;;;;;13.85;6.72;;;;;;;5.68;91.21;101578.89;1658160;85;25900;-83
2021/11/09 02:17:43;;;;;;;14.60;7.37;;;;;;;5.63;91.25;101582.42;1651458;86;26132;-84
2021/11/09 02:20:15;;;;;;;11.38;6.12;;;;;;;5.58;91.15;101583.28;1615001;86;26470;-84
2021/11/09 02:22:42;;;;;;;11.88;6.25;;;;;;;5.54;90.97;101591.17;1660955;86;25985;-85
2021/11/09 02:25:13;;;;;;;11.73;6.45;;;;;;;5.47;90.90;101598.81;1618525;85;27548;-85
2021/11/09 02:27:41;;;;;;;12.75;6.72;;;;;;;5.42;90.86;101604.17;1653920;86;25814;-84
2021/11/09 02:30:13;;;;;;;9.18;6.20;;;;;;;5.35;90.75;101605.66;1630926;85;26081;-84
2021/11/09 02:32:40;;;;;;;9.23;5.42;;;;;;;5.30;90.77;101610.02;1679695;84;25792;-85
2021/11/09 02:35:09;;;;;;;11.73;6.20;;;;;;;5.25;90.70;101610.06;1640870;85;25911;-84
2021/11/09 02:37:37;;;;;;;9.90;5.35;;;;;;;5.23;90.70;101612.00;1646366;85;28186;-83
2021/11/09 02:40:05;;;;;;;12.25;6.33;;;;;;;5.15;90.60;101624.61;1629605;85;25960;-85
2021/11/09 02:42:40;;;;;;;11.05;5.17;;;;;;;5.11;90.63;101628.45;1643620;85;25819;-84
2021/11/09 02:45:14;;;;;;;11.63;5.55;;;;;;;5.04;90.47;101621.14;1611052;85;26181;-84
2021/11/09 02:47:57;;;;;;;10.50;6.15;;;;;;;5.01;90.48;101626.69;1640400;84;26567;-83
2021/11/09 02:50:24;;;;;;;9.20;4.92;;;;;;;4.98;90.43;101631.79;1668862;85;28198;-84
2021/11/09 02:53:04;;;;;;;10.60;5.78;;;;;;;4.94;90.32;101636.97;1657337;85;26234;-83
2021/11/09 02:55:33;;;;;;;14.85;5.80;;;;;;;4.90;90.33;101632.06;1635774;85;25442;-84
2021/11/09 02:58:12;;;;;;;12.13;5.90;;;;;;;4.87;90.32;101634.47;1640925;86;26331;-84
2021/11/09 03:00:41;;;;;;;9.48;5.95;;;;;;;4.82;90.32;101633.14;1636567;85;25908;-84
2021/11/09 03:03:07;;;;;;;8.05;5.62;;;;;;;4.78;90.27;101635.21;1679992;84;27495;-83
2021/11/09 03:10:50;;;;;;;8.58;5.53;;;;;;;4.68;90.27;101653.67;1641612;85;26019;-84
2021/11/09 03:13:17;;;;;;;8.65;5.47;;;;;;;4.64;90.14;101653.56;1675073;85;25884;-84
2021/11/09 03:15:44;;;;;;;9.75;5.70;;;;;;;4.62;90.13;101657.30;1643564;85;27524;-84
2021/11/09 03:18:14;;;;;;;11.68;5.67;;;;;;;4.59;90.01;101662.88;1628692;84;25893;-83
2021/11/09 03:20:48;;;;;;;10.68;5.70;;;;;;;4.56;89.93;101663.95;1630275;85;25669;-84
2021/11/09 03:47:30;;;;;;;10.40;5.15;;;;;;;3.84;89.81;101701.04;1632547;86;25900;-83
2021/11/09 03:49:58;;;;;;;10.58;4.33;;;;;;;3.80;89.92;101705.36;1653834;85;26265;-84
2021/11/09 03:52:28;;;;;;;9.40;4.28;;;;;;;3.76;89.95;101701.26;1660936;84;26492;-85
2021/11/09 03:55:03;;;;;;;7.37;5.28;;;;;;;3.74;89.86;101701.86;1686850;83;27595;-84
2021/11/09 03:57:33;;;;;;;9.60;5.83;;;;;;;3.74;89.83;101712.45;1654509;84;25794;-84
2021/11/09 04:02:52;;;;;;;8.08;4.83;;;;;;;3.71;89.62;101719.30;1682027;84;26220;-84
2021/11/09 04:05:17;;;;;;;7.95;4.55;;;;;;;3.68;89.58;101724.34;1658276;85;25868;-84
2021/11/09 04:07:58;;;;;;;9.20;4.55;;;;;;;3.68;89.67;101724.81;1643963;84;27604;-83
2021/11/09 04:10:31;;;;;;;10.35;4.83;;;;;;;3.66;89.67;101734.69;1673843;85;25937;-83
2021/11/09 04:13:00;;;;;;;9.45;4.75;;;;;;;3.65;89.73;101739.64;1675577;85;25906;-83
2021/11/09 04:18:15;;;;;;;8.35;4.87;;;;;;;3.64;89.75;101737.94;1558566;90;26137;-84
2021/11/09 04:20:52;;;;;;;14.05;5.12;;;;;;;3.61;89.59;101739.03;1608070;85;27507;-83
2021/11/09 04:26:50;;;;;;;8.73;5.70;;;;;;;3.57;89.35;101749.97;1635541;85;36674;-84
2021/11/09 04:31:37;;;;;;;8.13;4.22;;;;;;;3.60;88.57;101756.34;1620481;85;26607;-85
2021/11/09 05:09:18;;;;;;;10.48;4.65;;;;;;;3.05;88.62;101817.78;1666565;84;26092;-86
2021/11/09 05:11:43;;;;;;;9.40;5.20;;;;;;;3.02;88.43;101826.77;1641597;86;25909;-88
2021/11/09 05:14:12;;;;;;;10.43;5.15;;;;;;;2.99;88.15;101826.98;1642579;84;27641;-87
2021/11/09 05:16:40;;;;;;;10.70;5.97;;;;;;;2.94;88.22;101830.45;1606649;86;25919;-87
2021/11/09 05:19:09;;;;;;;9.08;5.20;;;;;;;2.93;88.40;101839.83;1663588;84;25715;-87
2021/11/09 05:21:37;;;;;;;7.78;5.53;;;;;;;2.94;88.40;101842.83;1659232;86;26484;-87
2021/11/09 05:24:04;;;;;;;8.33;4.65;;;;;;;2.91;88.08;101845.20;1603245;86;25379;-87
2021/11/09 05:26:32;;;;;;;8.33;5.12;;;;;;;2.91;87.99;101853.61;1617191;85;27382;-88
2021/11/09 05:28:59;;;;;;;7.72;4.28;;;;;;;2.89;87.95;101856.38;1661282;85;25349;-87
2021/11/09 05:31:26;;;;;;;10.80;5.80;;;;;;;2.88;88.03;101855.17;1665903;85;25863;-87
2021/11/09 05:33:56;;;;;;;8.53;5.03;;;;;;;2.83;87.88;101865.22;1626757;86;25572;-87
2021/11/09 05:36:28;;;;;;;9.10;4.85;;;;;;;2.78;87.79;101875.29;1656331;85;25856;-87
2021/11/09 05:38:59;;;;;;;12.33;4.53;;;;;;;2.73;87.86;101877.39;1659373;84;28180;-88
2021/11/09 05:41:22;;;;;;;9.38;5.15;;;;;;;2.71;87.90;101882.80;1661645;85;25391;-87
2021/11/09 05:43:49;;;;;;;7.20;4.87;;;;;;;2.71;87.95;101889.88;1610182;86;26389;-86
2021/11/09 05:46:17;;;;;;;8.33;5.03;;;;;;;2.68;87.85;101896.23;1639270;86;25902;-87
2021/11/09 05:48:44;;;;;;;7.67;4.65;;;;;;;2.67;87.73;101897.20;1654324;85;25375;-87
2021/11/09 05:51:11;;;;;;;8.03;4.75;;;;;;;2.66;87.54;101898.13;1674359;85;27627;-88
2021/11/09 05:53:38;;;;;;;7.67;5.20;;;;;;;2.64;87.23;101907.97;1634771;86;25891;-87
2021/11/09 05:56:06;;;;;;;8.25;4.47;;;;;;;2.62;86.99;101904.58;1600397;85;25896;-87
2021/11/09 05:58:35;;;;;;;8.45;4.85;;;;;;;2.61;86.75;101911.31;1629671;86;26138;-87
2021/11/09 06:01:02;;;;;;;9.40;5.87;;;;;;;2.59;86.71;101919.83;1660463;86;25983;-87
2021/11/09 06:03:29;;;;;;;7.15;5.12;;;;;;;2.57;86.68;101917.73;1643292;85;28310;-87
2021/11/09 06:05:56;;;;;;;8.93;5.65;;;;;;;2.55;86.72;101924.45;1632299;85;25949;-87
2021/11/09 06:08:23;;;;;;;7.97;5.10;;;;;;;2.53;86.66;101929.00;1648862;85;25791;-87
2021/11/09 06:10:51;;;;;;;9.15;5.10;;;;;;;2.53;86.90;101933.44;1656581;85;25942;-88
2021/11/09 06:13:18;;;;;;;9.25;5.10;;;;;;;2.53;87.18;101935.61;1647537;85;25947;-86
2021/11/09 06:15:45;;;;;;;7.90;5.17;;;;;;;2.55;87.19;101931.06;1625123;86;27649;-87
2021/11/09 06:18:13;;;;;;;8.65;5.72;;;;;;;2.57;87.11;101938.89;1616471;85;25913;-88
2021/11/09 06:20:40;;;;;;;8.40;5.00;;;;;;;2.56;87.11;101947.80;1639974;85;25683;-87
2021/11/09 06:23:07;;;;;;;7.33;4.67;;;;;;;2.55;86.89;101955.34;1647250;85;25332;-88
2021/11/09 06:25:35;;;;;;;7.90;5.03;;;;;;;2.54;86.91;101959.80;1617608;85;25832;-87
2021/11/09 06:28:05;;;;;;;6.60;4.55;;;;;;;2.55;86.97;101963.27;1644554;85;27675;-88
2021/11/09 06:30:32;;;;;;;6.45;4.67;;;;;;;2.57;87.02;101967.98;1675615;85;25930;-87
2021/11/09 06:33:00;;;;;;;8.18;5.55;;;;;;;2.57;87.09;101974.12;1651210;85;25938;-88
2021/11/09 06:35:27;;;;;;;7.78;5.37;;;;;;;2.59;87.22;101981.48;1654554;85;25826;-87
2021/11/09 06:37:54;;;;;;;9.90;5.62;;;;;;;2.60;87.17;101988.95;1630171;85;25902;-86
2021/11/09 06:40:21;;;;;;;10.95;5.28;;;;;;;2.59;87.26;102000.50;1657300;86;27543;-87
2021/11/09 06:42:48;;;;;;;6.65;4.85;;;;;;;2.55;87.29;102003.80;1644319;85;25936;-87
2021/11/09 06:45:15;;;;;;;10.55;5.90;;;;;;;2.52;87.20;102007.13;1633723;86;26530;-87
2021/11/09 06:47:44;;;;;;;13.35;4.97;;;;;;;2.47;87.16;102017.16;1618311;85;25902;-87
2021/11/09 06:50:12;;;;;;;7.65;5.08;;;;;;;2.41;87.14;102028.14;1655981;86;25840;-87
2021/11/09 06:52:40;;;;;;;7.78;5.08;;;;;;;2.34;87.24;102027.69;1633850;86;28241;-87
2021/11/09 06:55:07;;;;;;;7.60;4.80;;;;;;;2.29;87.37;102033.27;1618301;86;26109;-88
2021/11/09 06:57:35;;;;;;;11.55;5.67;;;;;;;2.25;87.52;102037.53;1627483;86;25933;-87
2021/11/09 07:00:07;;;;;;;8.60;5.08;;;;;;;2.22;87.61;102043.03;1656109;86;25794;-88
2021/11/09 07:02:35;;;;;;;8.70;5.00;;;;;;;2.18;87.80;102045.50;1656612;85;25913;-87
2021/11/09 07:05:03;;;;;;;7.70;5.22;;;;;;;2.14;88.02;102051.89;1646757;85;27600;-87
2021/11/09 07:07:30;;;;;;;6.75;4.92;;;;;;;2.10;88.22;102066.25;1622768;85;25371;-88
2021/11/09 07:09:57;;;;;;;9.03;5.35;;;;;;;2.09;88.29;102065.89;1667225;85;25414;-88
2021/11/09 07:12:24;;;;;;;10.08;6.28;;;;;;;2.06;88.40;102073.54;1642404;85;26089;-87
2021/11/09 07:14:52;;;;;;;10.43;5.45;;;;;;;2.05;88.59;102079.75;1617244;85;25868;-87
2021/11/09 07:17:19;;;;;;;11.10;5.75;;;;;;;2.06;88.89;102082.78;1631112;85;28202;-87
2021/11/09 07:19:51;;;;;;;11.60;6.62;;;;;;;2.08;89.17;102084.86;1673284;85;26027;-88
2021/11/09 07:22:19;;;;;;;10.32;6.03;;;;;;;2.10;89.38;102089.58;1634690;86;25906;-88
2021/11/09 07:24:47;;;;;;;11.05;6.62;;;;;;;2.11;89.49;102097.04;1613651;86;25803;-88
2021/11/09 07:27:14;;;;;;;13.35;6.47;;;;;;;2.12;89.58;102103.55;1627359;86;25908;-87
2021/11/09 07:29:47;;;;;;;11.78;6.72;;;;;;;2.14;89.80;102112.69;1654353;86;27610;-89
2021/11/09 07:32:11;;;;;;;9.43;6.70;;;;;;;2.15;89.81;102118.36;1649633;85;26396;-88
2021/11/09 07:34:38;;;;;;;9.85;6.30;;;;;;;2.16;90.04;102114.80;1627327;85;25488;-87
2021/11/09 07:37:06;;;;;;;10.50;6.95;;;;;;;2.18;90.21;102126.94;1623600;86;25839;-90
2021/11/09 07:39:33;;;;;;;11.05;6.40;;;;;;;2.18;90.44;102124.30;1661507;86;25820;-88
2021/11/09 07:42:00;;;;;;;11.05;7.50;;;;;;;2.18;90.58;102122.98;1633825;85;27560;-87
2021/11/09 07:44:28;;;;;;;13.80;8.15;;;;;;;2.21;90.69;102125.91;1587318;86;25837;-88
2021/11/09 07:46:55;;;;;;;12.65;7.85;;;;;;;2.26;90.87;102130.44;1614784;86;26489;-87
2021/11/09 07:49:23;;;;;;;12.03;7.53;;;;;;;2.29;90.94;102133.73;1664318;85;25854;-88
2021/11/09 07:51:51;;;;;;;11.55;7.10;;;;;;;2.34;90.96;102131.66;1662796;85;25509;-88
2021/11/09 07:54:21;;;;;;;10.95;7.22;;;;;;;2.40;91.03;102139.66;1589081;86;27618;-88
2021/11/09 07:56:47;;;;;;;13.00;8.18;;;;;;;2.45;91.01;102140.70;1632324;85;25810;-87
2021/11/09 07:59:28;;;;;;;16.67;7.47;;;;;;;2.48;90.88;102141.84;1677905;85;25764;-88
2021/11/09 08:02:01;;;;;;;11.25;7.47;;;;;;;2.50;90.86;102142.59;1630749;85;25412;-87
2021/11/09 08:04:28;;;;;;;13.90;8.38;;;;;;;2.53;90.85;102151.63;1614513;85;25945;-88
2021/11/09 08:07:00;;;;;;;11.83;7.50;;;;;;;2.53;90.85;102160.42;1651568;85;27453;-87
2021/11/09 08:09:27;;;;;;;12.98;8.23;;;;;;;2.56;90.97;102162.03;1680879;85;25785;-87
2021/11/09 08:11:52;;;;;;;13.95;8.43;;;;;;;2.61;91.02;102175.33;1628380;86;25377;-87
2021/11/09 08:14:19;;;;;;;11.63;8.48;;;;;;;2.64;91.07;102167.68;1648455;84;26277;-88
2021/11/09 08:16:47;;;;;;;14.53;9.08;;;;;;;2.69;91.34;102173.53;1642987;86;25331;-87
2021/11/09 08:19:17;;;;;;;13.50;8.68;;;;;;;2.72;91.53;102167.56;1665117;85;27530;-87
2021/11/09 08:21:45;;;;;;;19.10;10.28;;;;;;;2.75;91.28;102171.34;1656901;85;25925;-88
2021/11/09 08:24:16;;;;;;;17.42;10.10;;;;;;;2.80;91.56;102170.55;1624339;86;25957;-89
2021/11/09 08:26:44;;;;;;;23.15;9.70;;;;;;;2.85;91.60;102162.33;1603552;86;25835;-89
2021/11/09 08:29:11;;;;;;;24.67;9.75;;;;;;;2.87;91.57;102157.31;1645409;86;25858;-88
2021/11/09 08:31:43;;;;;;;32.15;10.10;;;;;;;2.88;91.45;102166.11;1652135;85;27486;-88
2021/11/09 08:34:10;;;;;;;20.37;9.08;;;;;;;2.87;91.34;102175.84;1593593;86;25890;-88
2021/11/09 08:36:39;;;;;;;26.15;9.73;;;;;;;2.88;91.57;102174.91;1621964;86;26596;-88
2021/11/09 08:39:10;;;;;;;19.27;11.00;;;;;;;2.94;91.81;102185.56;1662003;85;25941;-88
2021/11/09 08:41:41;;;;;;;21.85;11.63;;;;;;;3.01;92.05;102187.72;1647481;85;25335;-88
2021/11/09 08:44:09;;;;;;;62.83;11.15;;;;;;;3.06;91.98;102191.37;1609187;86;27597;-88
2021/11/09 08:46:42;;;;;;;43.87;12.88;;;;;;;3.11;91.74;102191.92;1635896;86;25466;-88
2021/11/09 08:49:07;;;;;;;19.85;12.55;;;;;;;3.13;91.72;102194.00;1679159;85;25330;-89
2021/11/09 08:51:35;;;;;;;27.65;11.15;;;;;;;3.19;91.81;102196.73;1654072;85;26010;-87
2021/11/09 08:54:13;;;;;;;56.05;11.00;;;;;;;3.26;91.96;102201.98;1609992;85;25379;-87
2021/11/09 08:56:56;;;;;;;39.53;9.18;;;;;;;3.28;91.66;102204.91;1655555;85;27476;-87
2021/11/09 09:04:51;;;;;;;28.55;12.75;;;;;;;3.27;91.56;102217.80;1616666;85;26307;-87
2021/11/09 09:07:18;;;;;;;44.27;14.63;;;;;;;3.31;91.63;102217.11;1657083;84;26411;-87
2021/11/09 09:09:46;;;;;;;25.23;11.12;;;;;;;3.38;92.06;102223.70;1631897;86;28139;-89
2021/11/09 09:12:14;;;;;;;23.20;10.78;;;;;;;3.40;91.90;102229.75;1643263;85;25368;-87
2021/11/09 09:14:41;;;;;;;20.70;10.50;;;;;;;3.41;91.66;102235.41;1643986;84;25972;-88
2021/11/09 09:17:08;;;;;;;17.80;9.50;;;;;;;3.45;91.95;102237.75;1639766;85;25771;-87
2021/11/09 09:19:41;;;;;;;25.50;10.28;;;;;;;3.49;91.93;102245.02;1647316;85;25862;-88
2021/11/09 09:22:13;;;;;;;23.75;10.60;;;;;;;3.52;91.82;102248.33;1664569;86;27560;-88
2021/11/09 09:29:42;;;;;;;78.40;11.22;;;;;;;3.49;90.92;102254.28;1642319;85;25678;-89
2021/11/09 09:57:04;;;;;;;20.75;11.05;;;;;;;3.53;91.71;102284.95;1659442;86;26253;-87
2021/11/09 09:59:35;;;;;;;41.02;11.53;;;;;;;3.55;91.85;102284.37;1632678;86;25953;-88
2021/11/09 10:02:04;;;;;;;;;;;;;;;3.58;91.95;102292.10;1615714;86;27349;-88
2021/11/09 10:04:34;;;;;;;23.15;12.82;;;;;;;3.60;92.19;102296.36;1661824;84;25911;-87
2021/11/09 10:07:03;;;;;;;23.62;12.73;;;;;;;3.65;92.51;102296.91;1622308;84;26502;-87
2021/11/09 10:09:40;;;;;;;24.00;13.30;;;;;;;3.74;92.61;102301.58;1649139;84;25483;-87
2021/11/09 10:12:26;;;;;;;28.87;13.28;;;;;;;3.79;92.42;102300.81;1676747;84;25950;-87
2021/11/09 10:14:57;;;;;;;44.55;14.00;;;;;;;3.83;92.00;102308.93;1669367;84;27628;-88
2021/11/09 10:17:28;;;;;;;29.82;15.32;;;;;;;3.78;91.28;102307.08;1662736;84;25814;-87
2021/11/09 10:19:58;;;;;;;56.18;19.40;;;;;;;3.78;91.20;102308.88;1647114;85;25902;-87
2021/11/09 10:22:32;;;;;;;36.38;15.78;;;;;;;3.81;91.28;102303.35;1628699;85;35412;-88
2021/11/09 10:25:04;;;;;;;33.53;16.05;;;;;;;3.80;91.38;102309.16;1670574;85;25833;-88
2021/11/09 10:27:35;;;;;;;29.67;14.87;;;;;;;3.80;91.55;102309.16;1654566;85;28484;-87
2021/11/09 10:30:09;;;;;;;35.75;14.98;;;;;;;3.83;91.62;102301.45;1630136;85;25884;-88
2021/11/09 10:32:37;;;;;;;23.38;13.70;;;;;;;3.85;91.77;102304.84;1608696;86;25388;-88
2021/11/09 10:35:08;;;;;;;29.05;13.22;;;;;;;3.87;91.99;102297.67;1663493;85;25478;-88
2021/11/09 10:37:38;;;;;;;23.20;13.13;;;;;;;3.91;92.03;102301.81;1579757;85;26076;-88
2021/11/09 10:40:17;;;;;;;28.12;13.40;;;;;;;3.96;91.98;102302.83;1682150;85;27476;-87
2021/11/09 10:42:48;;;;;;;27.10;14.20;;;;;;;3.95;91.68;102300.65;1620069;85;25375;-87
2021/11/09 10:45:19;;;;;;;35.08;12.75;;;;;;;3.99;91.79;102305.26;1672389;85;25995;-87
2021/11/09 10:47:52;;;;;;;30.60;17.37;;;;;;;4.01;91.62;102307.33;1637142;86;25791;-87
2021/11/09 10:50:36;;;;;;;27.05;13.32;;;;;;;4.02;91.58;102310.37;1662735;85;26040;-87
2021/11/09 10:56:30;;;;;;;25.23;13.38;;;;;;;4.00;91.59;102315.75;1662063;85;25858;-88
2021/11/09 10:59:22;;;;;;;27.67;14.90;;;;;;;3.99;91.43;102322.02;1659057;85;25959;-88
2021/11/09 11:04:35;;;;;;;24.95;14.50;;;;;;;3.94;91.49;102318.81;1646891;85;25893;-87
2021/11/09 11:07:09;;;;;;;23.00;12.20;;;;;;;3.98;91.47;102321.63;1657594;85;27451;-87
2021/11/09 11:09:43;;;;;;;21.50;13.13;;;;;;;3.99;91.34;102323.35;1621848;85;25899;-87
2021/11/09 11:12:13;;;;;;;25.92;15.75;;;;;;;3.99;90.87;102326.47;1642017;86;25362;-87
2021/11/09 11:14:45;;;;;;;;;;;;;;;3.97;90.68;102324.40;1647517;86;25378;-87
2021/11/09 11:17:17;;;;;;;28.57;16.52;;;;;;;3.95;90.67;102327.16;1642078;86;25903;-87
2021/11/09 11:19:57;;;;;;;19.75;13.03;;;;;;;3.93;90.93;102329.89;1647916;85;27506;-87
2021/11/09 11:22:28;;;;;;;24.75;14.53;;;;;;;3.93;91.08;102329.53;1623051;85;25845;-87
2021/11/09 11:24:58;;;;;;;32.08;16.17;;;;;;;3.94;91.05;102336.05;1665085;85;25815;-88
2021/11/09 11:27:30;;;;;;;25.10;15.20;;;;;;;3.94;90.75;102332.08;1660664;86;26266;-89
2021/11/09 11:29:59;;;;;;;29.27;15.08;;;;;;;3.91;90.53;102330.97;1594397;85;25836;-88
2021/11/09 11:32:26;;;;;;;35.10;15.93;;;;;;;3.87;90.33;102339.58;1651423;85;28007;-88
2021/11/09 11:34:54;;;;;;;35.35;17.23;;;;;;;3.85;90.43;102344.61;1654023;86;25798;-86
2021/11/09 11:37:22;;;;;;;30.88;17.60;;;;;;;3.85;90.79;102344.14;1654131;86;26443;-88
2021/11/09 11:39:54;;;;;;;25.40;16.45;;;;;;;3.85;90.99;102344.14;1625619;87;25915;-87
2021/11/09 11:42:21;;;;;;;32.35;17.50;;;;;;;3.88;91.41;102343.95;1636915;86;26511;-87
2021/11/09 11:44:58;;;;;;;31.52;17.92;;;;;;;3.92;91.39;102351.21;1656093;86;27681;-87
2021/11/09 11:47:26;;;;;;;30.17;17.55;;;;;;;3.95;91.57;102347.05;1665552;85;25804;-88
2021/11/09 11:50:01;;;;;;;26.87;16.07;;;;;;;3.97;91.52;102354.42;1607538;86;25847;-88
2021/11/09 11:52:53;;;;;;;32.40;18.70;;;;;;;3.98;91.45;102356.10;1617208;85;26508;-88
2021/11/09 11:55:28;;;;;;;29.98;19.35;;;;;;;3.98;91.32;102368.03;1665572;85;25329;-86
2021/11/09 11:58:11;;;;;;;29.27;16.87;;;;;;;3.95;90.94;102368.72;1639254;85;27584;-87
2021/11/09 12:00:55;;;;;;;32.45;17.27;;;;;;;3.89;90.82;102370.81;1642244;85;25804;-87
2021/11/09 12:03:29;;;;;;;37.45;20.40;;;;;;;3.87;91.07;102371.89;1650838;85;26000;-87
2021/11/09 12:06:02;;;;;;;37.10;21.33;;;;;;;3.90;91.50;102363.72;1665631;85;25936;-88
2021/11/09 12:08:43;;;;;;;47.48;24.82;;;;;;;3.93;91.68;102359.05;1648176;86;25925;-87
2021/11/09 12:11:34;;;;;;;44.03;24.10;;;;;;;3.95;91.75;102365.60;1620019;86;27537;-87
2021/11/09 12:14:05;;;;;;;42.35;23.60;;;;;;;4.00;92.07;102354.70;1631811;86;25888;-86
2021/11/09 12:16:58;;;;;;;40.50;22.40;;;;;;;4.06;92.17;102354.28;1659067;86;25596;-88
2021/11/09 12:19:44;;;;;;;47.30;23.35;;;;;;;4.09;91.99;102355.38;1662448;86;26139;-88
2021/11/09 12:22:15;;;;;;;42.25;23.12;;;;;;;4.11;91.72;102348.17;1638520;85;25839;-87
2021/11/09 12:24:52;;;;;;;41.95;24.45;;;;;;;4.10;91.37;102350.47;1598538;86;27391;-87
2021/11/09 12:27:29;;;;;;;44.38;24.63;;;;;;;4.11;91.34;102358.31;1679350;84;25372;-88
2021/11/09 12:29:54;;;;;;;50.23;26.20;;;;;;;4.15;91.32;102359.80;1662079;85;25953;-87
2021/11/09 12:32:24;;;;;;;49.27;25.88;;;;;;;4.16;91.24;102348.26;1605915;85;25992;-88
2021/11/09 12:35:19;;;;;;;52.85;26.25;;;;;;;4.17;91.26;102350.44;1632448;84;25819;-88
2021/11/09 12:38:07;;;;;;;59.93;31.00;;;;;;;4.17;91.23;102352.59;1678745;84;28322;-89
2021/11/09 12:40:42;;;;;;;44.60;23.73;;;;;;;4.16;91.24;102349.59;1661503;85;25912;-87
2021/11/09 12:43:19;;;;;;;34.78;20.75;;;;;;;4.18;91.26;102352.13;1651018;85;25906;-87
2021/11/09 12:46:13;;;;;;;34.18;19.62;;;;;;;4.17;91.04;102351.27;1628461;85;25415;-88
2021/11/09 12:48:50;;;;;;;32.70;18.85;;;;;;;4.19;90.96;102350.69;1669330;85;25896;-87
2021/11/09 12:51:28;;;;;;;35.68;20.48;;;;;;;4.20;90.82;102354.20;1673047;84;27370;-87
2021/11/09 12:54:04;;;;;;;35.00;21.17;;;;;;;4.22;90.79;102351.82;1605177;87;25422;-88
2021/11/09 12:56:42;;;;;;;33.98;19.95;;;;;;;4.26;90.66;102349.80;1663474;85;25593;-88
2021/11/09 12:59:29;;;;;;;36.48;21.05;;;;;;;4.31;90.83;102352.53;1694826;84;26095;-87
2021/11/09 13:10:09;;;;;;;33.30;19.92;;;;;;;4.35;90.65;102354.48;1651858;84;25666;-87
2021/11/09 13:12:38;;;;;;;42.83;25.52;;;;;;;4.39;90.67;102358.16;1683717;84;25854;-86
2021/11/09 13:15:16;;;;;;;42.05;24.00;;;;;;;4.43;90.65;102361.44;1669523;84;25817;-87
2021/11/09 13:17:55;;;;;;;38.98;24.23;;;;;;;4.47;90.62;102358.98;1662635;85;28206;-86
2021/11/09 13:23:07;;;;;;;38.40;23.32;;;;;;;4.53;90.56;102359.88;1674473;83;25959;-89
2021/11/09 13:25:42;;;;;;;43.15;23.32;;;;;;;4.57;90.41;102362.23;1624264;85;25342;-87
2021/11/09 13:28:20;;;;;;;37.67;22.60;;;;;;;4.61;90.31;102358.87;1634087;85;25421;-87
2021/11/09 13:30:58;;;;;;;35.88;21.82;;;;;;;4.64;90.33;102363.48;1648697;85;27478;-89
2021/11/09 13:33:28;;;;;;;34.15;20.20;;;;;;;4.67;90.17;102361.09;1675701;84;25839;-88
2021/11/09 13:35:57;;;;;;;33.78;20.80;;;;;;;4.66;89.73;102361.56;1655473;85;26075;-88
2021/11/09 13:38:37;;;;;;;84.17;43.30;;;;;;;4.69;89.75;102362.69;1697219;83;26051;-88
2021/11/09 13:41:20;;;;;;;108.15;57.08;;;;;;;4.74;89.55;102367.69;1631182;85;25391;-87
2021/11/09 13:43:53;;;;;;;70.92;39.45;;;;;;;4.75;89.65;102367.22;1683411;84;27574;-87
2021/11/09 13:46:32;;;;;;;42.00;24.50;;;;;;;4.79;89.70;102370.03;1648251;85;25406;-88
2021/11/09 13:49:05;;;;;;;43.87;24.18;;;;;;;4.80;89.39;102365.93;1636440;84;25393;-87